Terminal Aerodrome Forecast
Issued by NWS

Home | Current Version | Previous Version | Text Only | Print | Product List | Glossary Off
Versions: 1 2 3 4 5 6 7 8 9 10 11 12 13

000
FTUS45 KGGW 210533
TAFGDV
TAF
KGDV 210533Z 2106/2206 15007KT P6SM SKC
     FM211200 13006KT P6SM SKC
     FM220100 13007KT P6SM FEW200=

USA.gov is the U.S. government's official web portal to all federal, state and local government web resources and services.